Terminal Aerodrome Forecast
Issued by NWS

Home | Current Version | Previous Version | Text Only | Print | Product List | Glossary On
Versions: 1 2 3 4 5 6 7 8 9 10 11 12 13 14 15 16
000
FTUS41 KGYX 251120
TAFLEB
TAF
KLEB 251120Z 2512/2612 27008KT P6SM SCT040 BKN080
     FM251400 31012G20KT P6SM SCT050 BKN250
     FM252200 32006KT P6SM SCT050=

USA.gov is the U.S. government's official web portal to all federal, state and local government web resources and services.